createdAt,value
2022-08-26T00:01:17.850Z,0
2022-08-26T00:06:53.107Z,0
2022-08-26T00:12:18.897Z,0
2022-08-26T00:18:00.597Z,0
2022-08-26T00:23:24.174Z,0
2022-08-26T00:28:46.999Z,0
2022-08-26T00:34:13.880Z,0
2022-08-26T00:39:37.955Z,0
2022-08-26T00:45:00.492Z,0
2022-08-26T00:50:23.070Z,0
2022-08-26T00:55:45.632Z,0
2022-08-26T01:01:08.521Z,0
2022-08-26T01:06:33.732Z,0
2022-08-26T01:11:56.316Z,0
2022-08-26T01:17:18.751Z,0
2022-08-26T01:22:41.099Z,0
2022-08-26T01:28:06.245Z,0
2022-08-26T01:33:42.641Z,0
2022-08-26T01:44:16.255Z,0
2022-08-26T01:55:02.611Z,0
2022-08-26T02:00:26.020Z,0
2022-08-26T02:05:51.350Z,0
2022-08-26T02:11:14.226Z,0
2022-08-26T02:16:59.078Z,0
2022-08-26T02:22:22.492Z,0
2022-08-26T02:27:47.313Z,0
2022-08-26T02:33:09.804Z,0
2022-08-26T02:38:32.258Z,0
2022-08-26T02:43:59.760Z,0
2022-08-26T02:49:22.283Z,0
2022-08-26T02:54:45.106Z,0
2022-08-26T03:00:13.767Z,0
2022-08-26T03:05:36.330Z,0
2022-08-26T03:11:17.762Z,0
2022-08-26T03:16:40.636Z,0
2022-08-26T03:22:11.147Z,0
2022-08-26T03:27:37.033Z,0
2022-08-26T03:32:59.443Z,0
2022-08-26T03:43:44.567Z,0
2022-08-26T03:49:28.947Z,0
2022-08-26T03:54:53.438Z,0
2022-08-26T04:00:18.335Z,0
2022-08-26T04:05:44.269Z,0
2022-08-26T04:11:11.319Z,0
2022-08-26T04:23:15.167Z,0
2022-08-26T04:28:41.509Z,0
2022-08-26T04:44:14.598Z,0
2022-08-26T04:49:37.720Z,0
2022-08-26T05:00:06.216Z,0.1
2022-08-26T05:05:28.809Z,0.1
2022-08-26T05:10:51.851Z,0.1
2022-08-26T05:16:14.504Z,0.1
2022-08-26T05:21:42.860Z,0.1
2022-08-26T05:27:07.420Z,0.1
2022-08-26T05:32:37.611Z,0.1
2022-08-26T05:38:00.225Z,0.1
2022-08-26T05:43:22.838Z,0.1
2022-08-26T05:48:45.606Z,0.1
2022-08-26T05:54:21.693Z,0.1
2022-08-26T05:59:45.546Z,0.1
2022-08-26T06:05:09.209Z,0.1
2022-08-26T06:10:35.008Z,0.1
2022-08-26T06:15:57.517Z,0.1
2022-08-26T06:21:21.051Z,0.1
2022-08-26T06:26:43.344Z,0.2
2022-08-26T06:32:13.687Z,0.2
2022-08-26T06:37:36.868Z,0.2
2022-08-26T06:42:59.460Z,0.2
2022-08-26T06:48:22.387Z,0.4
2022-08-26T06:53:44.779Z,0.3
2022-08-26T06:59:11.329Z,0.4
2022-08-26T07:04:35.870Z,0.4
2022-08-26T07:09:59.404Z,0.5
2022-08-26T07:15:23.970Z,0.4
2022-08-26T07:20:57.056Z,0.5
2022-08-26T07:26:28.600Z,0.4
2022-08-26T07:31:52.979Z,0.6
2022-08-26T07:37:20.591Z,0.7
2022-08-26T07:42:42.879Z,0.6
2022-08-26T07:48:05.727Z,0.5
2022-08-26T07:53:28.485Z,0.7
2022-08-26T07:58:52.145Z,0.8
2022-08-26T08:04:15.180Z,0.6
2022-08-26T08:09:38.278Z,0.4
2022-08-26T08:15:06.331Z,0.6
2022-08-26T08:20:29.151Z,1
2022-08-26T08:26:34.231Z,1
2022-08-26T08:31:58.167Z,0.9
2022-08-26T08:37:22.655Z,0.9
2022-08-26T08:42:45.756Z,0.8
2022-08-26T08:48:10.746Z,0.6
2022-08-26T08:53:35.125Z,0.7
2022-08-26T08:58:59.237Z,0.7
2022-08-26T09:04:24.219Z,0.7
2022-08-26T09:09:48.951Z,0.5
2022-08-26T09:15:13.767Z,0.5
2022-08-26T09:20:39.659Z,0.7
2022-08-26T09:26:03.646Z,0.6
2022-08-26T09:31:27.153Z,0.4
2022-08-26T09:36:50.740Z,0.4
2022-08-26T09:47:38.639Z,0.4
2022-08-26T09:53:03.318Z,0.4
2022-08-26T09:58:37.872Z,0.5
2022-08-26T10:04:06.458Z,0.5
2022-08-26T10:09:29.867Z,0.6
2022-08-26T10:14:56.397Z,0.5
2022-08-26T10:20:22.989Z,0.6
2022-08-26T10:25:47.073Z,0.7
2022-08-26T10:31:09.762Z,0.9
2022-08-26T10:36:39.255Z,0.8
2022-08-26T10:42:39.192Z,0.5
2022-08-26T10:48:08.694Z,0.8
2022-08-26T10:53:32.593Z,0.8
2022-08-26T10:58:55.611Z,0.9
2022-08-26T11:04:22.333Z,0.5
2022-08-26T11:09:46.934Z,0.6
2022-08-26T11:15:09.528Z,0.6
2022-08-26T11:20:35.510Z,0.6
2022-08-26T11:26:01.086Z,0.6
2022-08-26T11:31:26.181Z,0.6
2022-08-26T11:36:50.618Z,0.5
2022-08-26T11:42:14.791Z,0.9
2022-08-26T11:47:37.873Z,1.1
2022-08-26T11:53:00.581Z,1
2022-08-26T11:58:26.011Z,0.9
2022-08-26T12:03:49.464Z,1
2022-08-26T12:09:13.629Z,1
2022-08-26T12:14:38.080Z,0.8
2022-08-26T12:20:04.800Z,0.7
2022-08-26T12:25:27.975Z,0.6
2022-08-26T12:31:01.827Z,0.5
2022-08-26T12:36:24.187Z,0.5
2022-08-26T12:41:46.750Z,0.9
2022-08-26T12:47:09.988Z,1.4
2022-08-26T12:52:32.362Z,1.2
2022-08-26T12:57:54.962Z,1.1
2022-08-26T13:03:26.543Z,0.9
2022-08-26T13:08:49.145Z,1.1
2022-08-26T13:14:18.381Z,1.1
2022-08-26T13:19:48.003Z,1.4
2022-08-26T13:25:27.452Z,1
2022-08-26T13:30:49.641Z,0.7
2022-08-26T13:36:11.784Z,0.5
2022-08-26T13:41:34.150Z,0.5
2022-08-26T13:46:59.861Z,0.9
2022-08-26T13:52:25.579Z,1
2022-08-26T13:57:54.333Z,1.1
2022-08-26T14:03:17.103Z,1
2022-08-26T14:08:39.612Z,1
2022-08-26T14:14:15.953Z,1.3
2022-08-26T14:19:39.369Z,1.2
2022-08-26T14:25:01.633Z,1
2022-08-26T14:30:24.076Z,1
2022-08-26T14:35:47.386Z,1
2022-08-26T14:41:12.441Z,1
2022-08-26T14:46:34.980Z,0.7
2022-08-26T14:51:57.884Z,0.7
2022-08-26T14:57:29.213Z,0.5
2022-08-26T15:02:55.531Z,0.5
2022-08-26T15:08:18.736Z,0.5
2022-08-26T15:13:41.198Z,0.4
2022-08-26T15:19:03.873Z,0.4
2022-08-26T15:24:26.243Z,0.4
2022-08-26T15:29:49.016Z,0.3
2022-08-26T15:35:14.362Z,0.4
2022-08-26T15:40:39.304Z,0.4
2022-08-26T15:46:02.019Z,0.3
2022-08-26T15:51:25.014Z,0.4
2022-08-26T15:56:53.118Z,0.4
2022-08-26T16:02:16.310Z,0.4
2022-08-26T16:07:39.480Z,0.5
2022-08-26T16:13:02.252Z,0.4
2022-08-26T16:18:27.907Z,0.4
2022-08-26T16:23:50.447Z,0.4
2022-08-26T16:29:13.082Z,0.5
2022-08-26T16:34:39.235Z,0.5
2022-08-26T16:40:19.832Z,0.5
2022-08-26T16:45:42.674Z,0.6
2022-08-26T16:51:07.730Z,0.6
2022-08-26T16:56:36.013Z,0.6
2022-08-26T17:01:58.701Z,0.6
2022-08-26T17:07:21.449Z,0.6
2022-08-26T17:12:49.442Z,0.6
2022-08-26T17:18:24.053Z,0.4
2022-08-26T17:23:46.681Z,0.4
2022-08-26T17:29:09.124Z,0.3
2022-08-26T17:34:34.485Z,0.3
2022-08-26T17:39:56.790Z,0.3
2022-08-26T17:50:53.237Z,0.1
2022-08-26T17:56:15.701Z,0.1
2022-08-26T18:01:40.850Z,0.1
2022-08-26T18:07:06.053Z,0.1
2022-08-26T18:12:30.634Z,0.1
2022-08-26T18:18:02.302Z,0.1
2022-08-26T18:23:31.358Z,0
2022-08-26T18:28:54.100Z,0
2022-08-26T18:34:16.967Z,0
2022-08-26T18:39:39.870Z,0
2022-08-26T18:45:08.829Z,0
2022-08-26T18:50:38.491Z,0
2022-08-26T18:56:03.465Z,0
2022-08-26T19:01:27.633Z,0
2022-08-26T19:06:50.933Z,0
2022-08-26T19:17:41.821Z,0
2022-08-26T19:23:51.882Z,0
2022-08-26T19:34:45.905Z,0
2022-08-26T19:40:08.280Z,0
2022-08-26T19:45:31.343Z,0
2022-08-26T19:50:53.848Z,0
2022-08-26T19:56:23.698Z,0
2022-08-26T20:01:52.918Z,0
2022-08-26T20:07:25.589Z,0
2022-08-26T20:12:48.467Z,0
2022-08-26T20:18:13.119Z,0
2022-08-26T20:23:36.558Z,0
2022-08-26T20:29:04.338Z,0
2022-08-26T20:34:29.431Z,0
2022-08-26T20:50:07.106Z,0
2022-08-26T20:55:38.086Z,0
2022-08-26T21:01:04.073Z,0
2022-08-26T21:11:53.564Z,0
2022-08-26T21:17:16.249Z,0
2022-08-26T21:22:38.740Z,0
2022-08-26T21:28:01.313Z,0
2022-08-26T21:33:24.884Z,0
2022-08-26T21:38:55.931Z,0
2022-08-26T21:44:18.222Z,0
2022-08-26T21:49:40.841Z,0
2022-08-26T21:55:04.648Z,0
2022-08-26T22:00:35.254Z,0
2022-08-26T22:05:57.688Z,0
2022-08-26T22:11:20.219Z,0
2022-08-26T22:16:50.128Z,0
2022-08-26T22:22:13.574Z,0
2022-08-26T22:27:40.335Z,0
2022-08-26T22:33:05.491Z,0
2022-08-26T22:38:28.082Z,0
2022-08-26T22:43:50.723Z,0
2022-08-26T22:49:13.122Z,0
2022-08-26T22:54:35.700Z,0
2022-08-26T22:59:58.066Z,0
2022-08-26T23:05:27.569Z,0
2022-08-26T23:10:51.460Z,0
2022-08-26T23:16:17.676Z,0
2022-08-26T23:21:43.852Z,0
2022-08-26T23:27:06.233Z,0
2022-08-26T23:32:28.979Z,0
2022-08-26T23:37:54.335Z,0
2022-08-26T23:43:21.681Z,0
2022-08-26T23:48:44.975Z,0
2022-08-26T23:54:07.961Z,0
